createdAt,value
2018-11-20T00:00:32.964Z,99.87
2018-11-20T00:03:22.727Z,111.40
2018-11-20T00:06:11.559Z,103.33
2018-11-20T00:09:00.369Z,102.37
2018-11-20T00:11:59.019Z,97.97
2018-11-20T00:14:41.716Z,100.57
2018-11-20T00:17:31.668Z,98.97
2018-11-20T00:20:24.525Z,102.50
2018-11-20T00:23:17.185Z,103.00
2018-11-20T00:26:16.531Z,97.20
2018-11-20T00:29:17.064Z,105.17
2018-11-20T00:32:12.844Z,103.83
2018-11-20T00:35:02.262Z,125.20
2018-11-20T00:37:52.222Z,147.73
2018-11-20T00:40:44.820Z,199.47
2018-11-20T00:43:43.857Z,186.80
2018-11-20T00:46:42.749Z,155.43
2018-11-20T00:49:32.616Z,100.93
2018-11-20T00:52:22.381Z,76.37
2018-11-20T00:55:10.903Z,77.30
2018-11-20T00:57:54.577Z,99.57
2018-11-20T01:00:42.958Z,103.50
2018-11-20T01:03:39.042Z,95.33
2018-11-20T01:06:37.682Z,90.67
2018-11-20T01:09:22.125Z,86.50
2018-11-20T01:12:24.191Z,94.10
2018-11-20T01:15:15.080Z,76.63
2018-11-20T01:18:14.076Z,75.73
2018-11-20T01:21:09.792Z,82.63
2018-11-20T01:23:55.287Z,83.13
2018-11-20T01:26:50.890Z,88.20
2018-11-20T01:29:49.756Z,88.37
2018-11-20T01:32:30.192Z,75.57
2018-11-20T01:35:20.830Z,82.57
2018-11-20T01:38:03.088Z,76.53
2018-11-20T01:40:55.637Z,72.77
2018-11-20T01:43:48.361Z,77.03
2018-11-20T01:46:32.047Z,75.97
2018-11-20T01:49:33.988Z,81.10
2018-11-20T01:52:18.789Z,78.20
2018-11-20T01:55:07.516Z,79.00
2018-11-20T01:58:00.328Z,71.60
2018-11-20T02:00:49.060Z,81.23
2018-11-20T02:03:37.878Z,84.40
2018-11-20T02:06:27.596Z,79.97
2018-11-20T02:09:16.261Z,81.43
2018-11-20T02:11:58.057Z,86.70
2018-11-20T02:14:46.751Z,90.53
2018-11-20T02:17:48.773Z,86.30
2018-11-20T02:20:47.554Z,92.63
2018-11-20T02:23:37.401Z,103.90
2018-11-20T02:26:31.458Z,102.53
2018-11-20T02:29:21.275Z,102.70
2018-11-20T02:32:13.828Z,100.93
2018-11-20T02:34:54.264Z,94.83
2018-11-20T02:37:50.042Z,91.30
2018-11-20T02:40:38.395Z,89.90
2018-11-20T02:43:20.820Z,91.97
2018-11-20T02:46:10.689Z,96.37
2018-11-20T02:49:00.579Z,110.87
2018-11-20T02:51:50.007Z,104.37
2018-11-20T02:54:38.632Z,107.03
2018-11-20T02:57:23.054Z,90.70
2018-11-20T03:00:07.611Z,92.97
2018-11-20T03:03:04.483Z,104.83
2018-11-20T03:06:00.306Z,97.97
2018-11-20T03:08:56.050Z,93.80
2018-11-20T03:11:44.549Z,97.80
2018-11-20T03:14:43.446Z,94.77
2018-11-20T03:17:31.902Z,89.40
2018-11-20T03:20:30.905Z,94.20
2018-11-20T03:23:23.357Z,92.77
2018-11-20T03:26:33.869Z,98.70
2018-11-20T03:29:38.134Z,90.97
2018-11-20T03:32:23.829Z,94.57
2018-11-20T03:35:09.343Z,93.00
2018-11-20T03:37:57.965Z,93.87
2018-11-20T03:40:53.618Z,91.07
2018-11-20T03:43:41.991Z,95.03
2018-11-20T03:46:30.248Z,94.47
2018-11-20T03:49:26.203Z,96.90
2018-11-20T03:52:14.662Z,93.60
2018-11-20T03:55:04.602Z,167.37
2018-11-20T03:58:09.481Z,136.13
2018-11-20T04:01:10.858Z,158.07
2018-11-20T04:04:08.509Z,173.70
2018-11-20T04:06:50.846Z,143.20
2018-11-20T04:09:39.375Z,145.77
2018-11-20T04:12:29.303Z,152.50
2018-11-20T04:15:17.920Z,167.13
2018-11-20T04:18:26.128Z,163.27
2018-11-20T04:21:21.770Z,155.40
2018-11-20T04:24:20.632Z,147.93
2018-11-20T04:27:09.090Z,147.37
2018-11-20T04:29:57.983Z,163.43
2018-11-20T04:32:47.900Z,186.57
2018-11-20T04:35:34.887Z,162.53
2018-11-20T04:38:24.699Z,221.90
2018-11-20T04:41:10.564Z,249.87
2018-11-20T04:44:12.280Z,255.93
2018-11-20T04:46:57.814Z,257.93
2018-11-20T04:49:47.675Z,249.03
2018-11-20T04:52:52.473Z,274.37
2018-11-20T04:55:42.393Z,172.00
2018-11-20T04:58:27.354Z,75.03
2018-11-20T05:01:19.820Z,146.60
2018-11-20T05:04:21.817Z,146.20
2018-11-20T05:07:17.661Z,80.10
2018-11-20T05:10:22.815Z,134.67
2018-11-20T05:13:04.432Z,111.67
2018-11-20T05:15:56.986Z,119.80
2018-11-20T05:18:55.676Z,116.90
2018-11-20T05:21:44.299Z,113.87
2018-11-20T05:24:34.606Z,110.60
2018-11-20T05:27:33.215Z,121.50
2018-11-20T05:30:28.952Z,100.67
2018-11-20T05:33:21.582Z,79.20
2018-11-20T05:36:09.963Z,60.40
2018-11-20T05:39:02.676Z,92.17
2018-11-20T05:41:52.562Z,92.13
2018-11-20T05:44:39.554Z,42.60
2018-11-20T05:47:30.293Z,74.77
2018-11-20T05:50:19.108Z,42.37
2018-11-20T05:53:14.762Z,45.73
2018-11-20T05:56:04.668Z,45.50
2018-11-20T05:58:50.247Z,40.90
2018-11-20T06:01:49.117Z,46.13
2018-11-20T06:04:37.625Z,45.80
2018-11-20T06:07:25.912Z,49.07
2018-11-20T06:10:14.536Z,53.77
2018-11-20T06:12:56.778Z,41.87
2018-11-20T06:15:45.354Z,52.77
2018-11-20T06:18:29.323Z,39.60
2018-11-20T06:21:28.446Z,42.70
2018-11-20T06:24:29.184Z,38.50
2018-11-20T06:27:34.130Z,39.60
2018-11-20T06:30:14.751Z,36.13
2018-11-20T06:33:03.403Z,38.37
2018-11-20T06:35:59.214Z,31.50
2018-11-20T06:39:04.067Z,32.67
2018-11-20T06:42:35.567Z,32.07
2018-11-20T06:45:23.458Z,32.97
2018-11-20T06:48:12.989Z,46.67
2018-11-20T06:50:58.546Z,37.97
2018-11-20T06:53:46.492Z,31.57
2018-11-20T06:56:38.367Z,36.67
2018-11-20T06:59:26.461Z,35.63
2018-11-20T07:02:14.658Z,36.60
2018-11-20T07:05:09.501Z,47.20
2018-11-20T07:08:01.579Z,46.73
2018-11-20T07:10:56.581Z,40.80
2018-11-20T07:13:56.624Z,48.57
2018-11-20T07:16:56.432Z,33.93
2018-11-20T07:19:45.469Z,31.47
2018-11-20T07:22:34.351Z,31.93
2018-11-20T07:25:29.643Z,37.63
2018-11-20T07:28:21.753Z,35.27
2018-11-20T07:31:17.142Z,29.47
2018-11-20T07:34:08.864Z,30.67
2018-11-20T07:36:55.412Z,29.90
2018-11-20T07:39:44.128Z,30.63
2018-11-20T07:42:36.157Z,29.80
2018-11-20T07:45:25.820Z,34.20
2018-11-20T07:48:16.823Z,34.97
2018-11-20T07:51:17.746Z,35.40
2018-11-20T07:54:22.035Z,32.47
2018-11-20T07:57:09.687Z,24.80
2018-11-20T07:59:50.696Z,25.67
2018-11-20T08:02:39.840Z,26.97
2018-11-20T08:05:38.037Z,25.73
2018-11-20T08:08:27.036Z,19.97
2018-11-20T08:11:25.176Z,17.03
2018-11-20T08:14:13.069Z,20.50
2018-11-20T08:17:05.257Z,15.50
2018-11-20T08:20:02.055Z,20.40
2018-11-20T08:22:53.246Z,17.30
2018-11-20T08:26:00.559Z,22.87
2018-11-20T08:28:48.127Z,18.30
2018-11-20T08:31:35.747Z,24.67
2018-11-20T08:34:42.892Z,18.60
2018-11-20T08:37:30.477Z,18.03
2018-11-20T08:40:28.552Z,18.93
2018-11-20T08:43:26.724Z,15.83
2018-11-20T08:46:14.670Z,16.23
2018-11-20T08:49:22.097Z,14.20
2018-11-20T08:52:10.168Z,16.40
2018-11-20T08:54:59.329Z,16.70
2018-11-20T08:57:51.423Z,18.80
2018-11-20T09:00:29.918Z,18.60
2018-11-20T09:03:25.226Z,15.97
2018-11-20T09:06:28.923Z,19.40
2018-11-20T09:09:16.496Z,21.33
2018-11-20T09:12:05.547Z,19.53
2018-11-20T09:14:57.333Z,18.47
2018-11-20T09:17:52.409Z,19.70
2018-11-20T09:20:50.520Z,20.43
2018-11-20T09:23:38.373Z,20.07
2018-11-20T09:26:33.175Z,20.40
2018-11-20T09:29:28.457Z,24.00
2018-11-20T09:32:13.082Z,24.80
2018-11-20T09:34:54.253Z,30.70
2018-11-20T09:37:42.126Z,26.00
2018-11-20T09:41:11.559Z,22.57
2018-11-20T09:44:11.919Z,29.17
2018-11-20T09:47:04.001Z,23.50
2018-11-20T09:50:01.885Z,23.33
2018-11-20T09:52:50.116Z,47.23
2018-11-20T09:55:57.158Z,25.93
2018-11-20T09:58:44.581Z,21.67
2018-11-20T10:01:36.384Z,26.57
2018-11-20T10:04:24.214Z,27.37
2018-11-20T10:07:22.005Z,23.73
2018-11-20T10:10:09.826Z,29.63
2018-11-20T10:12:55.257Z,30.50
2018-11-20T10:15:59.734Z,34.67
2018-11-20T10:18:47.584Z,38.77
2018-11-20T10:21:54.957Z,37.90
2018-11-20T10:24:56.059Z,35.07
2018-11-20T10:27:43.986Z,28.47
2018-11-20T10:30:24.978Z,33.37
2018-11-20T10:33:20.136Z,31.87
2018-11-20T10:36:09.101Z,35.40
2018-11-20T10:39:09.791Z,39.53
2018-11-20T10:42:14.133Z,31.87
2018-11-20T10:45:05.688Z,36.80
2018-11-20T10:48:10.083Z,35.83
2018-11-20T10:50:57.456Z,31.00
2018-11-20T10:53:45.594Z,31.57
2018-11-20T10:56:37.303Z,30.43
2018-11-20T10:59:29.241Z,28.57
2018-11-20T11:02:16.737Z,32.87
2018-11-20T11:05:04.503Z,34.43
2018-11-20T11:07:52.350Z,32.27
2018-11-20T11:10:57.248Z,34.30
2018-11-20T11:13:46.263Z,40.40
2018-11-20T11:16:39.914Z,33.80
2018-11-20T11:19:27.544Z,36.60
2018-11-20T11:22:16.654Z,33.50
2018-11-20T11:25:14.676Z,28.33
2018-11-20T11:28:03.796Z,28.57
2018-11-20T11:30:52.760Z,36.00
2018-11-20T11:33:59.897Z,32.77
2018-11-20T11:36:51.808Z,27.37
2018-11-20T11:39:42.904Z,24.33
2018-11-20T11:42:31.947Z,23.60
2018-11-20T11:45:36.058Z,26.90
2018-11-20T11:48:24.075Z,26.10
2018-11-20T11:51:05.057Z,30.57
2018-11-20T11:53:54.162Z,34.17
2018-11-20T11:56:46.043Z,42.57
2018-11-20T11:59:47.120Z,32.17
2018-11-20T12:05:29.676Z,32.40
2018-11-20T12:08:21.740Z,28.20
2018-11-20T12:11:09.571Z,28.83
2018-11-20T12:16:49.715Z,32.43
2018-11-20T12:19:47.669Z,31.63
2018-11-20T12:22:35.384Z,32.03
2018-11-20T12:25:24.569Z,30.43
2018-11-20T12:28:22.515Z,35.93
2018-11-20T12:31:14.392Z,29.97
2018-11-20T12:34:03.511Z,31.73
2018-11-20T12:36:58.578Z,32.37
2018-11-20T12:39:53.275Z,38.43
2018-11-20T12:42:32.056Z,31.07
2018-11-20T12:45:23.806Z,31.23
2018-11-20T12:48:25.125Z,31.37
2018-11-20T12:51:20.365Z,29.30
2018-11-20T12:54:00.154Z,27.97
2018-11-20T12:56:47.466Z,31.10
2018-11-20T12:59:39.192Z,29.00
2018-11-20T13:02:30.716Z,28.93
2018-11-20T13:05:18.769Z,32.30
2018-11-20T13:08:07.436Z,25.17
2018-11-20T13:10:55.115Z,31.33
2018-11-20T13:13:36.648Z,28.97
2018-11-20T13:16:22.847Z,26.13
2018-11-20T13:19:20.730Z,27.27
2018-11-20T13:22:08.784Z,27.50
2018-11-20T13:24:58.027Z,26.83
2018-11-20T13:27:57.338Z,27.53
2018-11-20T13:30:46.394Z,27.33
2018-11-20T13:33:41.270Z,25.77
2018-11-20T13:36:39.242Z,26.07
2018-11-20T13:39:47.153Z,25.20
2018-11-20T13:42:41.547Z,24.07
2018-11-20T13:45:32.130Z,21.93
2018-11-20T13:48:21.126Z,24.37
2018-11-20T13:51:11.612Z,23.67
2018-11-20T13:53:57.940Z,21.00
2018-11-20T13:56:48.998Z,21.20
2018-11-20T13:59:38.019Z,25.30
2018-11-20T14:02:30.083Z,25.43
2018-11-20T14:05:26.578Z,22.77
2018-11-20T14:08:32.245Z,25.03
2018-11-20T14:11:20.154Z,21.00
2018-11-20T14:14:04.636Z,21.63
2018-11-20T14:16:59.919Z,24.83
2018-11-20T14:19:45.960Z,23.97
2018-11-20T14:22:31.587Z,21.20
2018-11-20T14:25:20.503Z,25.20
2018-11-20T14:28:15.244Z,22.83
2018-11-20T14:31:10.343Z,22.00
2018-11-20T14:33:58.375Z,18.57
2018-11-20T14:36:46.136Z,20.00
2018-11-20T14:39:34.639Z,19.50
2018-11-20T14:42:17.473Z,27.93
2018-11-20T14:45:06.646Z,16.23
2018-11-20T14:47:54.464Z,18.57
2018-11-20T14:50:46.331Z,20.73
2018-11-20T14:53:35.445Z,21.27
2018-11-20T14:56:36.870Z,25.77
2018-11-20T14:59:41.213Z,28.77
2018-11-20T15:02:28.840Z,18.17
2018-11-20T15:05:16.935Z,26.23
2018-11-20T15:08:14.935Z,19.47
2018-11-20T15:11:02.678Z,24.67
2018-11-20T15:13:54.443Z,18.33
2018-11-20T15:16:49.423Z,17.40
2018-11-20T15:19:37.430Z,16.37
2018-11-20T15:22:14.545Z,14.87
2018-11-20T15:25:16.174Z,14.77
2018-11-20T15:28:16.905Z,13.83
2018-11-20T15:31:18.168Z,13.13
2018-11-20T15:34:05.880Z,12.57
2018-11-20T15:36:53.648Z,15.60
2018-11-20T15:39:33.620Z,16.70
2018-11-20T15:42:34.776Z,14.30
2018-11-20T15:45:22.607Z,14.20
2018-11-20T15:48:10.165Z,12.77
2018-11-20T15:51:08.194Z,14.30
2018-11-20T15:54:03.091Z,13.93
2018-11-20T15:57:07.344Z,13.97
2018-11-20T15:59:56.085Z,18.90
2018-11-20T16:02:35.757Z,15.43
2018-11-20T16:05:40.489Z,19.10
2018-11-20T16:08:28.049Z,24.90
2018-11-20T16:11:16.129Z,22.20
2018-11-20T16:14:03.805Z,15.93
2018-11-20T16:17:01.881Z,18.60
2018-11-20T16:19:49.606Z,13.30
2018-11-20T16:22:50.618Z,15.73
2018-11-20T16:25:57.831Z,15.57
2018-11-20T16:29:05.259Z,15.60
2018-11-20T16:31:52.838Z,22.53
2018-11-20T16:34:44.640Z,21.53
2018-11-20T16:37:36.692Z,17.30
2018-11-20T16:40:25.556Z,17.13
2018-11-20T16:43:14.498Z,17.17
2018-11-20T16:46:18.867Z,13.77
2018-11-20T16:49:00.381Z,12.47
2018-11-20T16:51:58.620Z,14.03
2018-11-20T16:54:40.181Z,13.77
2018-11-20T16:57:32.263Z,13.57
2018-11-20T17:00:19.950Z,24.77
2018-11-20T17:03:09.048Z,36.13
2018-11-20T17:06:03.801Z,26.40
2018-11-20T17:08:52.900Z,16.97
2018-11-20T17:11:40.525Z,29.27
2018-11-20T17:14:26.630Z,23.07
2018-11-20T17:17:21.650Z,15.67
2018-11-20T17:20:09.229Z,15.90
2018-11-20T17:22:58.142Z,17.30
2018-11-20T17:25:47.232Z,20.70
2018-11-20T17:28:35.129Z,20.27
2018-11-20T17:31:25.854Z,20.97
2018-11-20T17:34:13.557Z,27.43
2018-11-20T17:37:01.240Z,19.17
2018-11-20T17:39:50.227Z,60.83
2018-11-20T17:42:38.125Z,18.57
2018-11-20T17:45:43.640Z,16.67
2018-11-20T17:48:31.552Z,13.93
2018-11-20T17:51:20.614Z,15.10
2018-11-20T17:54:15.375Z,13.67
2018-11-20T17:57:03.151Z,13.30
2018-11-20T18:00:00.873Z,13.20
2018-11-20T18:02:49.907Z,11.37
2018-11-20T18:05:41.623Z,10.57
2018-11-20T18:08:42.879Z,11.23
2018-11-20T18:11:23.797Z,13.17
2018-11-20T18:14:02.982Z,15.27
2018-11-20T18:16:52.077Z,13.33
2018-11-20T18:19:43.807Z,12.87
2018-11-20T18:22:44.716Z,12.97
2018-11-20T18:25:36.859Z,12.60
2018-11-20T18:28:32.361Z,14.10
2018-11-20T18:31:39.493Z,12.43
2018-11-20T18:34:27.072Z,12.20
2018-11-20T18:37:10.190Z,12.80
2018-11-20T18:39:55.300Z,12.93
2018-11-20T18:42:54.210Z,13.10
2018-11-20T18:45:42.766Z,14.40
2018-11-20T18:48:51.375Z,11.43
2018-11-20T18:51:56.073Z,11.23
2018-11-20T18:54:43.892Z,13.27
2018-11-20T18:57:32.723Z,13.67
2018-11-20T19:00:20.435Z,15.03
2018-11-20T19:03:19.208Z,14.93
2018-11-20T19:06:20.542Z,12.70
2018-11-20T19:09:05.172Z,11.30
2018-11-20T19:12:12.620Z,11.53
2018-11-20T19:15:03.159Z,12.27
2018-11-20T19:17:55.305Z,11.47
2018-11-20T19:20:42.257Z,11.67
2018-11-20T19:23:32.696Z,11.07
2018-11-20T19:26:22.644Z,9.33
2018-11-20T19:29:10.347Z,10.17
2018-11-20T19:32:06.058Z,8.50
2018-11-20T19:34:51.240Z,8.83
2018-11-20T19:37:39.583Z,9.97
2018-11-20T19:40:28.654Z,8.17
2018-11-20T19:43:17.952Z,8.70
2018-11-20T19:46:06.830Z,12.30
2018-11-20T19:48:54.447Z,10.23
2018-11-20T19:51:41.878Z,11.13
2018-11-20T19:54:43.313Z,10.53
2018-11-20T19:57:32.814Z,11.23
2018-11-20T20:00:37.196Z,9.93
2018-11-20T20:03:37.160Z,10.90
2018-11-20T20:06:26.376Z,10.80
2018-11-20T20:09:28.466Z,9.97
2018-11-20T20:12:32.385Z,9.33
2018-11-20T20:15:34.764Z,9.43
2018-11-20T20:18:34.163Z,8.17
2018-11-20T20:21:21.947Z,9.53
2018-11-20T20:24:08.401Z,15.10
2018-11-20T20:27:16.748Z,10.63
2018-11-20T20:30:10.000Z,20.30
2018-11-20T20:33:02.835Z,10.30
2018-11-20T20:35:54.770Z,13.03
2018-11-20T20:38:42.491Z,8.23
2018-11-20T20:41:28.817Z,10.57
2018-11-20T20:44:20.229Z,7.70
2018-11-20T20:47:09.039Z,7.07
2018-11-20T20:49:56.912Z,10.97
2018-11-20T20:52:44.736Z,10.10
2018-11-20T20:55:50.894Z,8.27
2018-11-20T20:58:36.245Z,12.03
2018-11-20T21:01:28.279Z,8.87
2018-11-20T21:04:14.801Z,11.17
2018-11-20T21:07:10.985Z,8.73
2018-11-20T21:10:00.040Z,13.00
2018-11-20T21:12:57.926Z,9.67
2018-11-20T21:15:47.325Z,9.30
2018-11-20T21:18:36.131Z,14.37
2018-11-20T21:21:34.251Z,11.57
2018-11-20T21:24:26.900Z,10.60
2018-11-20T21:27:23.187Z,11.80
2018-11-20T21:30:31.668Z,13.93
2018-11-20T21:33:17.929Z,8.80
2018-11-20T21:36:10.581Z,9.50
2018-11-20T21:38:58.329Z,11.13
2018-11-20T21:41:53.893Z,13.03
2018-11-20T21:44:37.447Z,11.97
2018-11-20T21:47:18.249Z,10.27
2018-11-20T21:50:08.555Z,9.73
2018-11-20T21:52:57.338Z,10.03
2018-11-20T21:55:46.370Z,10.70
2018-11-20T21:58:47.108Z,10.40
2018-11-20T22:01:36.218Z,11.13
2018-11-20T22:04:31.892Z,10.93
2018-11-20T22:07:17.075Z,10.00
2018-11-20T22:10:10.694Z,11.80
2018-11-20T22:13:08.685Z,9.20
2018-11-20T22:15:57.863Z,9.80
2018-11-20T22:18:47.025Z,7.03
2018-11-20T22:21:35.412Z,8.00
2018-11-20T22:24:36.825Z,6.80
2018-11-20T22:27:25.018Z,7.10
2018-11-20T22:30:12.573Z,9.47
2018-11-20T22:33:04.669Z,8.67
2018-11-20T22:35:53.975Z,9.63
2018-11-20T22:38:41.774Z,9.47
2018-11-20T22:41:35.409Z,8.60
2018-11-20T22:44:15.456Z,7.43
2018-11-20T22:47:23.760Z,8.13
2018-11-20T22:50:00.847Z,6.90
2018-11-20T22:52:52.420Z,8.20
2018-11-20T22:55:48.816Z,7.33
2018-11-20T22:58:53.345Z,6.30
2018-11-20T23:01:42.340Z,9.60
2018-11-20T23:04:32.316Z,8.53
2018-11-20T23:07:21.060Z,10.70
2018-11-20T23:09:53.197Z,8.70
2018-11-20T23:12:24.160Z,8.00
2018-11-20T23:14:54.212Z,7.73
2018-11-20T23:17:24.260Z,9.03
2018-11-20T23:19:54.223Z,8.23
2018-11-20T23:22:24.903Z,8.40
2018-11-20T23:24:54.896Z,7.83
2018-11-20T23:27:28.954Z,11.30
2018-11-20T23:29:59.963Z,6.70
2018-11-20T23:32:32.185Z,7.40
2018-11-20T23:35:03.260Z,7.43
2018-11-20T23:37:34.774Z,8.00
2018-11-20T23:40:04.969Z,7.43
2018-11-20T23:42:36.412Z,9.80
2018-11-20T23:45:09.056Z,8.40
2018-11-20T23:47:42.483Z,8.77
2018-11-20T23:50:13.904Z,10.83
2018-11-20T23:52:45.592Z,7.67
2018-11-20T23:55:17.249Z,9.23
2018-11-20T23:57:47.364Z,8.33
